Time;durP1;ratioP1;P1;durP2;ratioP2;P2;SDS_P1;SDS_P2;PMS_P1;PMS_P2;Temp;Humidity;BMP_temperature;BMP_pressure;BME280_temperature;BME280_humidity;BME280_pressure;Samples;Min_cycle;Max_cycle;Signal;HPM_P1;HPM_P2
2023/02/22 00:01:18;;;;;;;7.40;3.60;;;6.60;99.90;;;5.50;100.00;97240.72;5029361;28;20463;-75
2023/02/22 00:03:50;;;;;;;7.30;3.63;;;6.60;99.90;;;5.47;100.00;97244.63;5044594;28;20463;-74
2023/02/22 00:06:19;;;;;;;5.15;3.30;;;6.60;99.90;;;5.44;100.00;97240.59;5027417;28;20426;-75
2023/02/22 00:08:48;;;;;;;7.13;3.88;;;6.60;99.90;;;5.44;100.00;97248.47;5029308;28;20422;-74
2023/02/22 00:11:15;;;;;;;6.57;3.80;;;6.50;99.90;;;5.40;100.00;97236.84;5027069;28;20443;-74
2023/02/22 00:13:43;;;;;;;6.40;3.58;;;6.50;99.90;;;5.41;100.00;97248.16;5029200;28;20764;-75
2023/02/22 00:16:15;;;;;;;7.78;4.20;;;6.50;99.90;;;5.42;100.00;97241.84;5029263;28;20414;-75
2023/02/22 00:18:40;;;;;;;9.10;4.65;;;6.50;99.90;;;5.40;100.00;97234.22;5029317;28;20422;-75
2023/02/22 00:21:09;;;;;;;11.32;4.45;;;6.60;99.90;;;5.45;100.00;97238.78;5029091;28;20916;-75
2023/02/22 00:23:38;;;;;;;7.53;4.47;;;6.50;99.90;;;5.39;100.00;97234.44;5028935;28;20499;-74
2023/02/22 00:26:08;;;;;;;6.85;4.40;;;6.50;99.90;;;5.39;100.00;97235.22;5029874;28;20485;-73
2023/02/22 00:28:35;;;;;;;9.63;4.22;;;6.50;99.90;;;5.39;100.00;97235.22;5030566;28;20444;-74
2023/02/22 00:31:04;;;;;;;11.60;4.90;;;6.50;99.90;;;5.37;100.00;97228.59;5032695;28;20407;-74
2023/02/22 00:33:31;;;;;;;9.33;4.63;;;6.50;99.90;;;5.33;100.00;97230.06;5032376;28;21310;-73
2023/02/22 00:35:57;;;;;;;8.40;4.80;;;6.50;99.90;;;5.32;100.00;97221.41;5032865;28;20423;-74
2023/02/22 00:38:23;;;;;;;11.05;5.07;;;6.40;99.90;;;5.31;100.00;97225.03;5032720;28;20410;-74
2023/02/22 00:40:49;;;;;;;7.80;4.55;;;6.40;99.90;;;5.32;100.00;97223.22;5032665;28;20981;-74
2023/02/22 00:43:15;;;;;;;9.32;4.57;;;6.40;99.90;;;5.30;100.00;97230.50;5032357;28;20776;-75
2023/02/22 00:45:41;;;;;;;10.73;4.80;;;6.40;99.90;;;5.29;100.00;97231.53;5032591;28;20407;-74
2023/02/22 00:48:09;;;;;;;9.15;4.60;;;6.40;99.90;;;5.26;100.00;97219.63;5032559;28;20407;-74
2023/02/22 00:50:36;;;;;;;13.00;5.40;;;6.40;99.90;;;5.26;100.00;97224.09;5032560;28;20452;-74
2023/02/22 00:53:04;;;;;;;15.00;5.70;;;6.40;99.90;;;5.23;100.00;97227.16;5032190;28;20731;-75
2023/02/22 00:55:32;;;;;;;13.30;5.93;;;6.40;99.90;;;5.22;100.00;97226.34;5032486;28;20899;-76
2023/02/22 00:58:00;;;;;;;11.93;5.88;;;6.30;99.90;;;5.18;100.00;97225.22;5032428;28;20730;-75
2023/02/22 01:00:30;;;;;;;14.98;6.10;;;6.30;99.90;;;5.18;100.00;97225.22;5032349;28;20430;-75
2023/02/22 01:02:57;;;;;;;12.85;5.78;;;6.30;99.90;;;5.12;100.00;97212.94;5031563;28;20403;-75
2023/02/22 01:05:28;;;;;;;10.60;5.15;;;6.30;99.90;;;5.10;100.00;97211.59;5032228;28;20403;-75
2023/02/22 01:07:56;;;;;;;14.70;6.10;;;6.20;99.90;;;5.04;100.00;97219.28;5029934;28;20880;-75
2023/02/22 01:10:26;;;;;;;14.85;5.70;;;6.20;99.90;;;5.04;100.00;97203.56;5047460;28;20461;-75
2023/02/22 01:12:54;;;;;;;15.23;5.63;;;6.10;99.90;;;4.97;100.00;97202.03;5044394;28;20905;-75
2023/02/22 01:15:23;;;;;;;11.20;5.38;;;6.10;99.90;;;4.96;100.00;97209.09;5032063;28;20414;-75
2023/02/22 01:17:52;;;;;;;13.88;5.80;;;6.10;99.90;;;4.96;100.00;97198.59;5032025;28;20403;-75
2023/02/22 01:20:21;;;;;;;11.18;4.90;;;6.10;99.90;;;4.95;100.00;97202.28;5032016;28;20788;-75
2023/02/22 01:22:52;;;;;;;11.45;5.38;;;6.00;99.90;;;4.85;100.00;97196.72;5031630;28;20525;-75
2023/02/22 01:25:21;;;;;;;11.90;5.22;;;6.00;99.90;;;4.84;100.00;97204.81;5031941;28;20765;-75
2023/02/22 01:27:49;;;;;;;13.75;6.40;;;6.00;99.90;;;4.82;100.00;97197.16;5031736;28;20904;-75
2023/02/22 01:30:19;;;;;;;13.13;6.10;;;6.00;99.90;;;4.83;100.00;97197.97;5031825;28;20400;-75
2023/02/22 01:32:45;;;;;;;13.80;5.32;;;6.00;99.90;;;4.82;100.00;97191.91;5031449;28;20447;-75
2023/02/22 01:35:14;;;;;;;12.43;6.00;;;5.90;99.90;;;4.82;100.00;97193.72;5031510;28;20930;-75
2023/02/22 01:37:42;;;;;;;10.38;5.20;;;5.90;99.90;;;4.77;100.00;97194.41;5031506;28;20407;-75
2023/02/22 01:40:17;;;;;;;13.27;5.82;;;5.90;99.90;;;4.78;100.00;97190.75;5031587;28;20473;-75
2023/02/22 01:42:43;;;;;;;13.45;5.30;;;5.90;99.90;;;4.77;100.00;97189.16;5031207;28;20781;-75
2023/02/22 01:45:53;;;;;;;11.32;6.03;;;5.90;99.90;;;4.78;100.00;97180.28;5031342;28;20461;-75
2023/02/22 01:48:31;;;;;;;13.93;5.78;;;5.90;99.90;;;4.77;100.00;97170.78;5029646;28;20473;-75
2023/02/22 01:51:09;;;;;;;12.80;6.35;;;5.90;99.90;;;4.78;100.00;97177.66;5029201;28;20475;-75
2023/02/22 01:53:41;;;;;;;12.55;6.20;;;5.90;99.90;;;4.75;100.00;97167.59;5028770;28;20822;-75
2023/02/22 01:56:09;;;;;;;18.17;6.05;;;5.90;99.90;;;4.73;100.00;97166.22;5031370;28;21043;-75
2023/02/22 01:58:39;;;;;;;11.73;6.00;;;5.80;99.90;;;4.67;100.00;97162.63;5028907;28;20451;-75
2023/02/22 02:01:06;;;;;;;14.20;6.28;;;5.80;99.90;;;4.65;100.00;97162.88;5031007;28;20463;-75
2023/02/22 02:03:35;;;;;;;9.88;5.38;;;5.80;99.90;;;4.65;100.00;97159.44;5030880;28;20756;-75
2023/02/22 02:06:06;;;;;;;9.68;5.68;;;5.80;99.90;;;4.65;100.00;97148.97;5031116;28;20440;-75
2023/02/22 02:08:41;;;;;;;10.13;5.53;;;5.80;99.90;;;4.67;100.00;97149.53;5030962;28;20403;-75
2023/02/22 02:11:09;;;;;;;12.30;6.28;;;5.80;99.90;;;4.67;100.00;97146.91;5030896;28;20399;-75
2023/02/22 02:13:36;;;;;;;15.18;6.20;;;5.80;99.90;;;4.68;100.00;97149.31;5028225;28;20399;-75
2023/02/22 02:16:02;;;;;;;12.00;5.97;;;5.80;99.90;;;4.66;100.00;97150.56;5030918;28;20477;-75
2023/02/22 02:18:28;;;;;;;10.13;5.60;;;5.80;99.90;;;4.64;100.00;97145.53;5030883;28;20407;-75
2023/02/22 02:21:43;;;;;;;10.98;5.47;;;5.80;99.90;;;4.64;100.00;97147.34;5030699;28;20426;-75
2023/02/22 02:24:49;;;;;;;10.30;5.35;;;5.80;99.90;;;4.64;100.00;97139.50;5030004;28;20411;-75
2023/02/22 02:27:21;;;;;;;9.55;5.55;;;5.80;99.90;;;4.62;100.00;97133.66;5005287;28;20484;-76
2023/02/22 02:30:30;;;;;;;11.80;6.22;;;5.80;99.90;;;4.61;100.00;97132.06;5030588;28;20448;-74
2023/02/22 02:33:03;;;;;;;11.55;5.90;;;5.70;99.90;;;4.61;100.00;97127.63;5007246;28;20472;-75
2023/02/22 02:35:44;;;;;;;12.55;6.05;;;5.80;99.90;;;4.61;100.00;97129.44;5030446;28;20536;-74
2023/02/22 02:38:29;;;;;;;12.10;5.75;;;5.70;99.90;;;4.57;100.00;97128.28;5029750;28;21296;-75
2023/02/22 02:41:06;;;;;;;9.73;5.70;;;5.70;99.90;;;4.54;100.00;97126.91;5027791;28;20487;-74
2023/02/22 02:43:40;;;;;;;12.02;5.90;;;5.70;99.90;;;4.53;100.00;97125.28;5030224;28;20845;-74
2023/02/22 02:46:14;;;;;;;17.20;6.93;;;5.70;99.90;;;4.52;100.00;97123.69;5030421;28;20448;-75
2023/02/22 02:48:46;;;;;;;14.15;6.50;;;5.70;99.90;;;4.48;100.00;97122.53;5027966;28;20810;-75
2023/02/22 02:51:14;;;;;;;14.70;6.95;;;5.60;99.90;;;4.46;100.00;97113.28;5030267;28;20988;-74
2023/02/22 02:53:46;;;;;;;11.63;6.13;;;5.60;99.90;;;4.46;100.00;97111.47;5030023;28;20425;-75
2023/02/22 02:56:12;;;;;;;12.13;5.82;;;5.60;99.90;;;4.42;100.00;97112.13;5030168;28;20431;-76
2023/02/22 02:58:51;;;;;;;11.95;6.18;;;5.60;99.90;;;4.43;100.00;97117.16;5030225;28;20741;-75
2023/02/22 03:01:40;;;;;;;11.10;5.93;;;5.60;99.90;;;4.38;100.00;97111.75;5027730;28;20468;-76
2023/02/22 03:04:26;;;;;;;17.55;7.18;;;5.50;99.90;;;4.37;100.00;97104.91;5028997;28;20409;-76
2023/02/22 03:07:16;;;;;;;13.37;6.40;;;5.60;99.90;;;4.35;100.00;97096.47;5029834;28;20482;-74
2023/02/22 03:09:57;;;;;;;14.90;6.93;;;5.50;99.90;;;4.35;100.00;97098.28;5028451;28;20800;-76
2023/02/22 03:12:37;;;;;;;12.48;6.72;;;5.50;99.90;;;4.29;100.00;97089.47;5028368;28;20450;-76
2023/02/22 03:15:20;;;;;;;11.13;6.70;;;5.50;99.90;;;4.31;100.00;97092.69;5028187;28;20411;-76
2023/02/22 03:17:52;;;;;;;13.52;7.50;;;5.50;99.90;;;4.34;100.00;97089.63;5028836;28;20407;-76
2023/02/22 03:20:30;;;;;;;14.50;7.00;;;5.50;99.90;;;4.31;100.00;97086.63;5027821;28;20452;-75
2023/02/22 03:23:03;;;;;;;14.65;7.22;;;5.50;99.90;;;4.29;100.00;97092.09;5027213;28;20442;-75
2023/02/22 03:25:36;;;;;;;14.63;7.70;;;5.40;99.90;;;4.27;100.00;97088.91;5029715;28;20958;-75
2023/02/22 03:28:10;;;;;;;13.48;7.18;;;5.40;99.90;;;4.27;100.00;97089.72;5029824;28;20398;-75
2023/02/22 03:30:40;;;;;;;16.13;7.45;;;5.40;99.90;;;4.27;100.00;97092.31;5027466;28;20391;-75
2023/02/22 03:33:16;;;;;;;11.85;7.10;;;5.40;99.90;;;4.21;100.00;97084.53;5029376;28;20455;-76
2023/02/22 03:35:48;;;;;;;14.02;8.00;;;5.40;99.90;;;4.19;100.00;97087.38;5028039;28;20500;-75
2023/02/22 03:38:18;;;;;;;12.82;7.28;;;5.30;99.90;;;4.17;100.00;97084.16;5027088;28;20415;-76
2023/02/22 03:40:49;;;;;;;16.20;8.35;;;5.30;99.90;;;4.18;100.00;97082.34;5029502;28;20444;-75
2023/02/22 03:43:23;;;;;;;21.33;8.43;;;5.40;99.90;;;4.17;100.00;97078.13;5026743;28;20452;-73
2023/02/22 03:45:50;;;;;;;13.55;7.25;;;5.30;99.90;;;4.12;100.00;97075.38;5029562;28;20466;-75
2023/02/22 03:48:23;;;;;;;21.17;8.18;;;5.30;99.90;;;4.13;100.00;97076.97;5029713;28;20405;-75
2023/02/22 03:50:52;;;;;;;16.00;7.60;;;5.30;99.90;;;4.08;100.00;97067.13;5029547;28;20487;-75
2023/02/22 03:53:19;;;;;;;18.77;8.03;;;5.20;99.90;;;4.08;100.00;97077.59;5029216;28;20469;-75
2023/02/22 03:55:50;;;;;;;15.55;7.65;;;5.20;99.90;;;4.03;100.00;97080.09;5029448;28;20403;-75
2023/02/22 03:58:19;;;;;;;19.25;8.70;;;5.20;99.90;;;4.06;100.00;97077.00;5027142;28;20535;-75
2023/02/22 04:00:46;;;;;;;17.63;8.20;;;5.20;99.90;;;4.01;100.00;97082.09;5029637;28;20440;-75
2023/02/22 04:03:12;;;;;;;19.97;7.97;;;5.20;99.90;;;3.99;100.00;97080.72;5032956;28;20403;-75
2023/02/22 04:05:38;;;;;;;12.57;7.28;;;5.20;99.90;;;3.96;100.00;97079.34;5033367;28;20425;-75
2023/02/22 04:08:05;;;;;;;12.55;7.75;;;5.10;99.90;;;3.95;100.00;97079.56;5033293;28;20407;-75
2023/02/22 04:10:32;;;;;;;16.20;8.52;;;5.10;99.90;;;3.93;100.00;97082.38;5033163;28;20451;-75
2023/02/22 04:12:58;;;;;;;20.23;9.25;;;5.10;99.90;;;3.95;100.00;97085.59;5032960;28;20417;-75
2023/02/22 04:15:24;;;;;;;18.15;8.75;;;5.10;99.90;;;3.87;100.00;97076.19;5033069;28;20410;-75
2023/02/22 04:17:53;;;;;;;14.60;8.00;;;5.10;99.90;;;3.86;100.00;97079.03;5033191;28;20414;-75
2023/02/22 04:20:24;;;;;;;15.50;7.90;;;5.00;99.90;;;3.85;100.00;97077.44;5033081;28;20826;-75
2023/02/22 04:22:51;;;;;;;20.10;9.23;;;5.00;99.90;;;3.88;100.00;97071.78;5032627;28;20538;-75
2023/02/22 04:25:18;;;;;;;17.17;8.60;;;5.00;99.90;;;3.83;100.00;97061.16;5032990;28;21063;-75
2023/02/22 04:27:44;;;;;;;15.90;7.60;;;5.00;99.90;;;3.78;100.00;97066.22;5032910;28;21036;-75
2023/02/22 04:30:11;;;;;;;16.77;7.85;;;5.00;99.90;;;3.75;100.00;97064.03;5032806;28;20494;-75
2023/02/22 04:32:37;;;;;;;15.60;7.68;;;4.90;99.90;;;3.71;100.00;97073.31;5032495;28;20411;-75
2023/02/22 04:35:04;;;;;;;16.40;8.52;;;4.90;99.90;;;3.73;100.00;97079.16;5032713;28;20454;-75
2023/02/22 04:37:33;;;;;;;16.63;8.70;;;4.90;99.90;;;3.67;100.00;97072.16;5032702;28;20418;-75
2023/02/22 04:39:59;;;;;;;21.25;9.30;;;4.80;99.90;;;3.64;100.00;97072.59;5032713;28;20674;-75
2023/02/22 04:42:26;;;;;;;14.70;8.30;;;4.80;99.90;;;3.58;100.00;97074.25;5032288;28;21143;-75
2023/02/22 04:44:52;;;;;;;15.70;8.73;;;4.80;99.90;;;3.57;100.00;97071.84;5032545;28;20414;-75
2023/02/22 04:47:18;;;;;;;14.95;8.10;;;4.80;99.90;;;3.58;100.00;97071.63;5032665;28;20438;-75
2023/02/22 04:49:44;;;;;;;21.03;9.27;;;4.80;99.90;;;3.60;100.00;97071.44;5032664;28;20403;-75
2023/02/22 04:52:10;;;;;;;18.55;9.20;;;4.70;99.90;;;3.58;100.00;97063.78;5032320;28;21419;-75
2023/02/22 04:54:36;;;;;;;15.68;8.55;;;4.80;99.90;;;3.53;100.00;97065.44;5030026;28;20768;-75
2023/02/22 04:57:03;;;;;;;20.95;10.05;;;4.70;99.90;;;3.53;100.00;97057.59;5032551;28;20443;-75
2023/02/22 04:59:31;;;;;;;22.10;9.68;;;4.70;99.90;;;3.52;100.00;97062.03;5032481;28;20760;-75
2023/02/22 05:01:59;;;;;;;22.73;10.45;;;4.70;99.90;;;3.47;100.00;97062.66;5029583;28;20419;-75
2023/02/22 05:04:25;;;;;;;19.30;9.93;;;4.70;99.90;;;3.47;100.00;97062.66;5032323;28;20399;-75
2023/02/22 05:06:52;;;;;;;22.50;9.25;;;4.60;99.90;;;3.45;100.00;97063.91;5032183;28;20410;-74
2023/02/22 05:09:18;;;;;;;21.15;9.68;;;4.60;99.90;;;3.42;100.00;97059.88;5031007;28;20506;-73
2023/02/22 05:11:44;;;;;;;21.23;9.52;;;4.60;99.90;;;3.41;100.00;97066.13;5030016;28;20410;-73
2023/02/22 05:14:10;;;;;;;23.85;10.15;;;4.60;99.90;;;3.46;100.00;97058.44;5031329;28;20505;-74
2023/02/22 05:16:37;;;;;;;19.48;9.65;;;4.60;99.90;;;3.42;100.00;97056.47;5028982;28;20407;-74
2023/02/22 05:19:03;;;;;;;24.17;10.98;;;4.60;99.90;;;3.39;100.00;97056.88;5031305;28;20452;-73
2023/02/22 05:21:29;;;;;;;21.38;9.88;;;4.60;99.90;;;3.37;100.00;97044.03;5031122;28;20426;-74
2023/02/22 05:23:56;;;;;;;20.02;9.80;;;4.50;99.90;;;3.36;100.00;97046.84;5030503;28;20819;-74
2023/02/22 05:26:22;;;;;;;26.95;11.10;;;4.60;99.90;;;3.41;100.00;97047.81;5030059;28;20485;-74
2023/02/22 05:28:48;;;;;;;27.60;11.27;;;4.60;99.90;;;3.35;100.00;97038.22;5031118;28;20410;-74
2023/02/22 05:31:14;;;;;;;22.50;10.43;;;4.60;99.90;;;3.37;100.00;97045.84;5029771;28;20426;-74
2023/02/22 05:33:41;;;;;;;25.43;10.90;;;4.60;99.90;;;3.37;100.00;97035.38;5047111;22;20415;-72
2023/02/22 05:36:08;;;;;;;19.77;10.40;;;4.60;99.90;;;3.37;100.00;97038.00;5037867;28;20399;-72
2023/02/22 05:38:41;;;;;;;24.20;10.77;;;4.60;99.90;;;3.38;100.00;97035.16;5038309;28;20456;-72
2023/02/22 05:41:08;;;;;;;25.90;10.98;;;4.60;99.90;;;3.40;100.00;97037.56;5034302;28;20471;-71
2023/02/22 05:43:33;;;;;;;18.80;10.20;;;4.60;99.90;;;3.37;100.00;97038.81;5039037;28;20400;-72
2023/02/22 05:45:59;;;;;;;20.30;9.40;;;4.50;99.90;;;3.36;100.00;97029.34;5019103;28;20758;-72
2023/02/22 05:48:25;;;;;;;23.90;11.75;;;4.60;99.90;;;3.37;100.00;97030.97;5021496;28;20486;-72
2023/02/22 05:50:52;;;;;;;21.67;10.43;;;4.60;99.90;;;3.36;100.00;97031.16;5021069;28;20600;-72
2023/02/22 05:53:18;;;;;;;20.27;10.70;;;4.60;99.90;;;3.36;100.00;97031.97;5019195;28;20801;-71
2023/02/22 05:55:44;;;;;;;19.30;9.90;;;4.50;99.90;;;3.37;100.00;97032.78;5017410;28;20401;-71
2023/02/22 05:58:10;;;;;;;20.38;10.68;;;4.60;99.90;;;3.35;100.00;97030.38;5022646;28;20406;-72
2023/02/22 06:00:36;;;;;;;24.88;10.10;;;4.60;99.90;;;3.37;100.00;97030.97;5031713;28;20430;-71
2023/02/22 06:03:05;;;;;;;23.13;11.38;;;4.60;99.90;;;3.40;100.00;97021.84;5020076;28;20790;-71
2023/02/22 06:05:31;;;;;;;20.05;10.00;;;4.60;99.90;;;3.36;100.00;97020.69;5015603;28;20811;-71
2023/02/22 06:08:00;;;;;;;20.67;10.43;;;4.60;99.90;;;3.35;100.00;97017.28;5015739;28;20415;-71
2023/02/22 06:10:27;;;;;;;22.60;11.07;;;4.50;99.90;;;3.36;100.00;97020.69;5017782;28;20416;-71
2023/02/22 06:12:54;;;;;;;23.33;10.77;;;4.50;99.90;;;3.34;100.00;97018.28;5030664;28;20407;-71
2023/02/22 06:15:22;;;;;;;21.43;9.67;;;4.50;99.90;;;3.34;100.00;97020.09;5026198;28;20414;-72
2023/02/22 06:17:49;;;;;;;30.60;11.03;;;4.50;99.90;;;3.34;100.00;97026.13;5021923;28;20902;-71
2023/02/22 06:20:17;;;;;;;18.33;9.68;;;4.50;99.90;;;3.33;100.00;97028.97;5019939;28;20470;-72
2023/02/22 06:22:45;;;;;;;23.87;11.37;;;4.50;99.90;;;3.27;100.00;97027.22;5015658;28;20428;-72
2023/02/22 06:25:16;;;;;;;24.15;11.32;;;4.50;99.90;;;3.29;100.00;97031.22;5015179;28;20537;-72
2023/02/22 06:27:41;;;;;;;20.40;9.95;;;4.50;99.90;;;3.28;100.00;97031.44;5019262;28;20452;-72
2023/02/22 06:30:09;;;;;;;19.58;9.82;;;4.50;99.90;;;3.29;100.00;97039.06;5020225;28;20468;-72
2023/02/22 06:32:35;;;;;;;19.33;10.13;;;4.50;99.90;;;3.32;100.00;97035.19;5019517;28;20430;-72
2023/02/22 06:35:01;;;;;;;21.88;10.00;;;4.50;99.90;;;3.33;100.00;97040.22;5021174;28;20415;-72
2023/02/22 06:37:26;;;;;;;20.17;9.93;;;4.50;99.90;;;3.35;100.00;97043.44;5018872;28;20445;-72
2023/02/22 06:39:52;;;;;;;16.85;8.93;;;4.50;99.90;;;3.36;100.00;97037.19;5020010;28;20754;-72
2023/02/22 06:42:19;;;;;;;23.13;10.68;;;4.60;99.90;;;3.39;100.00;97043.81;5021009;28;20508;-72
2023/02/22 06:44:45;;;;;;;24.65;10.98;;;4.60;99.90;;;3.42;100.00;97046.00;5019637;28;20411;-71
2023/02/22 06:47:12;;;;;;;20.13;10.48;;;4.60;99.90;;;3.43;100.00;97048.41;5020016;28;20880;-72
2023/02/22 06:49:38;;;;;;;23.38;11.10;;;4.60;99.90;;;3.47;100.00;97049.56;5021149;28;20419;-72
2023/02/22 06:52:04;;;;;;;21.23;11.03;;;4.60;99.90;;;3.53;100.00;97044.50;5018929;28;20483;-72
2023/02/22 06:54:30;;;;;;;25.87;10.73;;;4.70;99.90;;;3.58;100.00;97055.94;5019939;28;20410;-72
2023/02/22 06:56:56;;;;;;;25.13;10.77;;;4.70;99.90;;;3.65;100.00;97055.88;5021066;28;20420;-72
2023/02/22 06:59:23;;;;;;;21.35;11.02;;;4.80;99.90;;;3.70;100.00;97061.25;5019003;28;20405;-72
2023/02/22 07:01:49;;;;;;;18.67;9.88;;;4.80;99.90;;;3.73;100.00;97060.84;5019552;28;20449;-72
2023/02/22 07:04:15;;;;;;;17.98;9.65;;;4.90;99.90;;;3.76;100.00;97055.94;5020604;28;20954;-72
2023/02/22 07:06:45;;;;;;;19.33;10.35;;;4.90;99.90;;;3.82;100.00;97062.16;5018784;28;20405;-72
2023/02/22 07:09:11;;;;;;;21.92;10.60;;;5.00;99.90;;;3.86;100.00;97060.69;5019575;28;20497;-72
2023/02/22 07:11:38;;;;;;;19.30;9.27;;;5.00;99.90;;;3.88;100.00;97062.09;5020487;28;21069;-72
2023/02/22 07:14:04;;;;;;;23.02;10.52;;;5.00;99.90;;;3.93;100.00;97065.88;5019044;28;20407;-73
2023/02/22 07:16:32;;;;;;;24.02;10.43;;;5.10;99.90;;;3.98;100.00;97066.03;5019899;28;20410;-75
2023/02/22 07:19:01;;;;;;;20.88;9.85;;;5.10;99.90;;;4.04;100.00;97062.56;5017319;28;20461;-74
2023/02/22 07:21:28;;;;;;;19.08;10.15;;;5.20;99.90;;;4.10;100.00;97072.97;5016702;28;20748;-74
2023/02/22 07:23:56;;;;;;;20.42;10.50;;;5.20;99.90;;;4.14;100.00;97068.88;5022896;28;20408;-74
2023/02/22 07:26:22;;;;;;;16.65;9.80;;;5.30;99.90;;;4.22;100.00;97071.19;5022359;28;20434;-71
2023/02/22 07:28:48;;;;;;;22.13;10.35;;;5.30;99.90;;;4.26;100.00;97075.00;5024745;28;20459;-72
2023/02/22 07:31:14;;;;;;;22.63;10.90;;;5.40;99.90;;;4.32;100.00;97069.91;5028682;28;20505;-73
2023/02/22 07:33:44;;;;;;;19.48;9.60;;;5.40;99.90;;;4.39;100.00;97073.25;5007970;28;20423;-73
2023/02/22 07:36:12;;;;;;;22.88;10.60;;;5.50;99.90;;;4.45;100.00;97073.16;5028895;28;20422;-73
2023/02/22 07:38:38;;;;;;;21.73;11.00;;;5.60;99.90;;;4.47;100.00;97073.75;5034401;28;20452;-73
2023/02/22 07:41:04;;;;;;;24.50;11.50;;;5.60;99.90;;;4.51;100.00;97082.75;5036102;28;20399;-73
2023/02/22 07:43:30;;;;;;;20.55;10.57;;;5.60;99.90;;;4.58;100.00;97080.88;5036071;28;20399;-73
2023/02/22 07:45:59;;;;;;;22.65;10.27;;;5.70;99.90;;;4.63;100.00;97081.03;5035711;28;20407;-73
2023/02/22 07:48:27;;;;;;;21.95;10.75;;;5.70;99.90;;;4.66;100.00;97082.41;5032516;28;20529;-73
2023/02/22 07:50:55;;;;;;;20.67;10.38;;;5.70;99.90;;;4.76;100.00;97087.09;5038517;28;20479;-73
2023/02/22 07:53:23;;;;;;;19.75;10.52;;;5.80;99.90;;;4.87;100.00;97081.94;5026988;28;20429;-72
2023/02/22 07:55:50;;;;;;;16.98;10.43;;;5.90;99.90;;;5.08;100.00;97080.63;5036195;28;20752;-72
2023/02/22 07:58:19;;;;;;;16.63;9.43;;;6.10;99.90;;;5.24;100.00;97084.44;5036404;28;20395;-72
2023/02/22 08:00:48;;;;;;;20.63;10.57;;;6.30;99.90;;;5.38;100.00;97086.66;5036284;28;20445;-71
2023/02/22 08:03:17;;;;;;;17.63;9.40;;;6.40;99.90;;;5.54;100.00;97089.66;5032332;28;20419;-72
2023/02/22 08:05:46;;;;;;;16.48;9.25;;;6.60;99.90;;;5.67;100.00;97089.44;5031063;28;20861;-71
2023/02/22 08:08:16;;;;;;;16.55;9.27;;;6.70;99.90;;;5.82;100.00;97089.78;5034477;28;20455;-73
2023/02/22 08:10:43;;;;;;;17.73;10.32;;;6.80;99.90;;;5.93;100.00;97082.97;5028835;28;20411;-73
2023/02/22 08:13:09;;;;;;;21.02;11.30;;;6.90;99.90;;;6.04;100.00;97084.78;5034671;28;20403;-71
2023/02/22 08:15:38;;;;;;;19.15;10.70;;;7.10;99.90;;;6.15;100.00;97090.06;5035651;28;20399;-72
2023/02/22 08:18:10;;;;;;;20.70;11.03;;;7.20;99.90;;;6.27;100.00;97091.84;5037595;28;20422;-72
2023/02/22 08:20:38;;;;;;;17.83;10.05;;;7.30;99.90;;;6.40;100.00;97084.50;5040539;28;20819;-73
2023/02/22 08:23:04;;;;;;;17.10;9.80;;;7.40;99.90;;;6.49;100.00;97083.13;5037457;28;20510;-73
2023/02/22 08:25:32;;;;;;;15.47;10.07;;;7.50;99.90;;;6.59;100.00;97088.59;5052367;28;20532;-71
2023/02/22 08:28:02;;;;;;;18.50;10.32;;;7.60;99.90;;;6.69;100.00;97085.34;5040768;28;20417;-71
2023/02/22 08:30:33;;;;;;;19.60;10.47;;;7.70;99.90;;;6.79;100.00;97087.38;5028339;28;20877;-72
2023/02/22 08:33:01;;;;;;;21.07;11.13;;;7.80;99.90;;;6.86;100.00;97078.31;5035969;28;20399;-71
2023/02/22 08:35:29;;;;;;;17.38;10.43;;;7.80;99.90;;;6.94;100.00;97077.16;5035959;28;20403;-72
2023/02/22 08:37:58;;;;;;;18.30;10.95;;;7.90;99.90;;;7.02;100.00;97078.59;5018426;28;20407;-72
2023/02/22 08:40:28;;;;;;;15.07;9.82;;;8.00;99.90;;;7.17;100.00;97073.63;5036213;28;20411;-71
2023/02/22 08:42:55;;;;;;;19.65;11.50;;;8.10;99.90;;;7.27;100.00;97076.44;5035929;28;20788;-71
2023/02/22 08:45:22;;;;;;;18.10;10.05;;;8.30;99.90;;;7.24;100.00;97079.53;5035561;28;20414;-70
2023/02/22 08:47:48;;;;;;;20.58;10.80;;;8.20;99.90;;;7.39;100.00;97072.69;5032720;28;20478;-71
2023/02/22 08:50:17;;;;;;;22.77;10.50;;;8.30;99.90;;;7.46;100.00;97079.63;5032905;28;20403;-71
2023/02/22 08:52:43;;;;;;;24.93;10.53;;;8.40;99.90;;;7.44;100.00;97079.91;5032788;28;20403;-71
2023/02/22 08:55:09;;;;;;;21.63;10.98;;;8.40;99.90;;;7.52;100.00;97070.81;5032364;28;20399;-72
2023/02/22 08:57:35;;;;;;;23.00;10.68;;;8.40;99.90;;;7.58;100.00;97075.13;5032837;28;20399;-72
2023/02/22 09:00:04;;;;;;;23.50;10.73;;;8.50;99.90;;;7.70;100.00;97070.56;5032877;28;20934;-72
2023/02/22 09:02:30;;;;;;;19.48;11.07;;;8.60;99.90;;;7.77;100.00;97071.97;5032249;28;20425;-73
2023/02/22 09:04:56;;;;;;;31.13;10.50;;;8.70;99.90;;;7.88;100.00;97086.13;5014825;28;20415;-72
2023/02/22 09:07:23;;;;;;;19.08;10.23;;;8.80;99.90;;;8.00;100.00;97081.53;5032679;28;20430;-73
2023/02/22 09:09:49;;;;;;;18.10;10.00;;;8.90;99.90;;;8.08;100.00;97081.13;5032682;28;20403;-73
2023/02/22 09:12:15;;;;;;;15.73;9.35;;;8.90;99.90;;;8.17;100.00;97073.63;5025923;28;20772;-71
2023/02/22 09:14:41;;;;;;;15.10;8.65;;;9.10;99.90;;;8.27;100.00;97071.09;5032517;28;20492;-73
2023/02/22 09:17:09;;;;;;;17.30;8.82;;;9.20;99.90;;;8.35;100.00;97075.19;5032364;28;20403;-73
2023/02/22 09:19:34;;;;;;;15.68;8.32;;;9.20;99.90;;;8.41;100.00;97074.22;5031245;28;20431;-72
2023/02/22 09:22:00;;;;;;;14.83;8.27;;;9.30;99.90;;;8.51;100.00;97074.34;5031849;28;20900;-72
2023/02/22 09:24:27;;;;;;;12.97;7.63;;;9.40;99.90;;;8.63;100.00;97085.59;5029050;28;20789;-72
2023/02/22 09:26:53;;;;;;;14.98;7.18;;;9.50;99.90;;;8.75;100.00;97080.19;5029780;28;20932;-73
2023/02/22 09:29:21;;;;;;;10.40;6.05;;;9.60;99.90;;;8.84;100.00;97073.41;5029498;28;20437;-73
2023/02/22 09:31:49;;;;;;;9.43;6.20;;;9.70;99.90;;;9.02;100.00;97080.22;5029500;28;20400;-73
2023/02/22 09:34:18;;;;;;;10.90;6.57;;;9.80;99.90;;;9.10;100.00;97079.75;5028201;28;20407;-73
2023/02/22 09:36:45;;;;;;;12.02;6.32;;;10.00;99.90;;;9.16;100.00;97073.50;5031035;28;20466;-73
2023/02/22 09:39:14;;;;;;;12.20;6.45;;;10.10;99.90;;;9.41;100.00;97073.72;5029231;28;20475;-73
2023/02/22 09:41:50;;;;;;;14.20;7.38;;;10.20;99.90;;;9.40;100.00;97074.75;5031493;28;20417;-73
2023/02/22 09:44:23;;;;;;;12.17;7.50;;;10.30;99.90;;;9.65;100.00;97072.34;5032013;28;20403;-73
2023/02/22 09:46:53;;;;;;;13.75;7.32;;;10.40;99.90;;;9.80;100.00;97076.16;5032033;28;20399;-73
2023/02/22 09:49:26;;;;;;;11.13;7.38;;;10.70;99.90;;;9.96;100.00;97076.00;5031881;28;20400;-73
2023/02/22 09:52:00;;;;;;;14.15;6.72;;;10.80;99.90;;;10.19;100.00;97074.06;5031570;28;20478;-73
2023/02/22 09:54:34;;;;;;;12.27;7.05;;;11.00;99.90;;;10.40;100.00;97062.53;5031706;28;20419;-73
2023/02/22 09:57:15;;;;;;;16.45;7.20;;;11.20;99.90;;;10.54;100.00;97065.50;5031753;28;20478;-74
2023/02/22 09:59:47;;;;;;;12.23;6.45;;;11.30;99.90;;;10.76;100.00;97071.41;5030432;28;20395;-73
2023/02/22 10:02:25;;;;;;;12.05;6.00;;;11.50;99.90;;;11.16;100.00;97068.09;5031290;28;20492;-73
2023/02/22 10:05:04;;;;;;;13.60;6.50;;;11.90;99.90;;;11.62;100.00;97063.66;5013716;28;20403;-73
2023/02/22 10:07:35;;;;;;;10.43;6.07;;;12.50;99.90;;;12.19;100.00;97057.22;5031588;28;20474;-73
2023/02/22 10:10:05;;;;;;;12.77;5.32;;;13.00;99.90;;;12.43;100.00;97063.53;5031512;28;20562;-72
2023/02/22 10:12:43;;;;;;;11.20;5.73;;;13.30;99.90;;;12.40;100.00;97058.78;5031104;28;20489;-71
2023/02/22 10:15:40;;;;;;;9.27;5.63;;;13.30;99.90;;;12.53;100.00;97055.56;5031265;28;20439;-72
2023/02/22 10:18:55;;;;;;;10.50;5.20;;;13.40;99.90;;;12.62;100.00;97061.91;5031208;28;20403;-72
2023/02/22 10:21:40;;;;;;;9.95;5.70;;;13.50;99.90;;;12.46;100.00;97055.06;5030999;28;20433;-72
2023/02/22 10:24:18;;;;;;;10.52;5.82;;;13.30;99.90;;;12.33;100.00;97048.44;5031166;28;20446;-72
2023/02/22 10:26:45;;;;;;;13.57;6.20;;;13.20;99.90;;;12.45;100.00;97042.03;5031098;28;20490;-72
2023/02/22 10:29:24;;;;;;;10.63;5.97;;;13.30;99.90;;;12.70;100.00;97041.97;5031008;28;20395;-72